Time;durP1;ratioP1;P1;durP2;ratioP2;P2;SDS_P1;SDS_P2;PMS_P1;PMS_P2;Temp;Humidity;BMP_temperature;BMP_pressure;BME280_temperature;BME280_humidity;BME280_pressure;Samples;Min_cycle;Max_cycle;Signal;HPM_P1;HPM_P2
2022/11/26 00:00:50;;;;;;;30.43;16.00;;;;;;;-141.28;100.00;50995.66;5114248;28;20447;-75
2022/11/26 00:03:18;;;;;;;34.03;16.53;;;;;;;-141.28;100.00;51074.19;5113633;28;20444;-74
2022/11/26 00:05:48;;;;;;;36.27;17.20;;;;;;;-141.28;100.00;51166.47;5113306;28;20449;-75
2022/11/26 00:08:21;;;;;;;31.70;15.70;;;;;;;-141.28;100.00;51209.66;5113646;28;20448;-78
2022/11/26 00:10:51;;;;;;;31.53;15.00;;;;;;;-141.28;100.00;51158.59;5113587;28;20445;-77
2022/11/26 00:13:22;;;;;;;39.57;16.27;;;;;;;-141.28;100.00;51512.00;5113594;28;20829;-74
2022/11/26 00:15:49;;;;;;;43.23;18.23;;;;;;;-141.28;100.00;51625.91;5112825;28;20445;-75
2022/11/26 00:18:16;;;;;;;28.73;14.30;;;;;;;-141.28;100.00;51741.75;5113415;28;20990;-76
2022/11/26 00:20:44;;;;;;;38.43;21.60;;;;;;;-141.28;100.00;51777.09;5113116;28;20449;-76
2022/11/26 00:23:19;;;;;;;27.13;14.73;;;;;;;-141.28;100.00;51712.28;5101505;28;20987;-73
2022/11/26 00:25:49;;;;;;;29.97;14.87;;;;;;;-141.28;100.00;51932.22;5118063;28;20445;-74
2022/11/26 00:28:27;;;;;;;23.70;12.73;;;;;;;-141.28;100.00;51975.44;5114465;28;20453;-74
2022/11/26 00:30:56;;;;;;;26.57;14.17;;;;;;;-141.28;100.00;52057.91;5113436;28;20531;-76
2022/11/26 00:33:24;;;;;;;27.77;14.17;;;;;;;-141.28;100.00;52014.69;5112568;28;20460;-75
2022/11/26 00:35:53;;;;;;;22.27;12.23;;;;;;;-141.28;100.00;52289.63;5112702;28;20444;-79
2022/11/26 00:38:22;;;;;;;28.60;13.80;;;;;;;-141.28;100.00;52325.00;5112440;28;20884;-77
2022/11/26 00:40:50;;;;;;;24.60;12.53;;;;;;;-141.28;100.00;52389.81;5118100;28;20857;-74
2022/11/26 00:43:19;;;;;;;26.93;13.97;;;;;;;-141.28;100.00;52442.81;5120530;28;20453;-76
2022/11/26 00:45:49;;;;;;;24.10;13.30;;;;;;;-141.28;100.00;52470.31;5124111;28;20449;-73
2022/11/26 00:48:18;;;;;;;27.50;13.47;;;;;;;-141.28;100.00;52427.13;5120202;28;20502;-73
2022/11/26 00:50:49;;;;;;;28.63;14.17;;;;;;;-141.28;100.00;52474.25;5120679;28;20459;-75
2022/11/26 00:53:18;;;;;;;27.90;14.40;;;;;;;-141.28;100.00;52489.97;5119539;28;20501;-76
2022/11/26 00:55:48;;;;;;;27.27;13.53;;;;;;;-141.28;100.00;52344.63;5113512;28;20995;-76
2022/11/26 00:58:23;;;;;;;27.33;13.77;;;;;;;-141.28;100.00;52434.97;5112741;28;20996;-74
2022/11/26 01:00:53;;;;;;;26.93;13.17;;;;;;;-141.28;100.00;52419.25;5104252;28;20448;-74
2022/11/26 01:03:20;;;;;;;26.57;13.17;;;;;;;-141.28;100.00;52366.22;5103595;28;20450;-74
2022/11/26 01:05:50;;;;;;;25.00;14.10;;;;;;;-141.28;100.00;52207.16;5111470;28;20997;-74
2022/11/26 01:08:27;;;;;;;29.53;13.53;;;;;;;-141.28;100.00;51881.16;5112856;28;20484;-77
2022/11/26 01:10:54;;;;;;;24.43;13.37;;;;;;;-141.28;100.00;52336.78;5112934;28;20811;-74
2022/11/26 01:13:22;;;;;;;25.77;13.83;;;;;;;-141.28;100.00;52332.84;5112261;28;20449;-78
2022/11/26 01:15:49;;;;;;;25.43;12.90;;;;;;;-141.28;100.00;52256.25;5112060;28;21032;-77
2022/11/26 01:18:20;;;;;;;24.13;12.33;;;;;;;-141.28;100.00;52246.44;5112152;28;20476;-75
2022/11/26 01:20:47;;;;;;;23.97;12.33;;;;;;;-141.28;100.00;52191.44;5112305;28;20822;-77
2022/11/26 01:23:19;;;;;;;21.13;11.97;;;;;;;-141.28;100.00;52108.97;5112024;28;20472;-79
2022/11/26 01:25:47;;;;;;;24.37;11.50;;;;;;;-141.28;100.00;52108.97;5112313;28;20452;-77
2022/11/26 01:28:16;;;;;;;25.43;11.77;;;;;;;-141.28;100.00;52075.56;5111916;28;20437;-76
2022/11/26 01:30:44;;;;;;;25.80;12.43;;;;;;;-141.28;100.00;52059.88;5112380;28;20947;-77
2022/11/26 01:33:11;;;;;;;24.60;11.90;;;;;;;-141.28;100.00;52087.34;5111997;28;21028;-74
2022/11/26 01:35:39;;;;;;;20.20;11.60;;;;;;;-141.28;100.00;52010.78;5111894;28;20492;-78
2022/11/26 01:38:06;;;;;;;21.40;11.20;;;;;;;-141.28;100.00;51967.56;5112112;28;20514;-75
2022/11/26 01:40:53;;;;;;;20.67;12.37;;;;;;;-141.28;100.00;51959.72;5111699;28;20445;-76
2022/11/26 01:43:26;;;;;;;27.77;12.37;;;;;;;-141.28;100.00;51845.81;5098892;28;20505;-78
2022/11/26 01:45:54;;;;;;;20.13;11.10;;;;;;;-141.28;100.00;51830.09;5112371;28;20479;-76
2022/11/26 01:48:27;;;;;;;19.97;11.27;;;;;;;-141.28;100.00;51767.28;5111542;28;20461;-76
2022/11/26 01:51:02;;;;;;;19.70;11.17;;;;;;;-141.28;100.00;51708.38;5114068;28;20448;-75
2022/11/26 01:53:45;;;;;;;17.13;10.80;;;;;;;-141.28;100.00;51598.41;5115863;28;20437;-78
2022/11/26 01:56:18;;;;;;;20.70;11.40;;;;;;;-141.28;100.00;51541.47;5116264;28;20445;-75
2022/11/26 01:58:49;;;;;;;20.07;11.43;;;;;;;-141.28;100.00;51351.00;5116328;28;20521;-76
2022/11/26 02:01:16;;;;;;;21.53;11.70;;;;;;;-141.28;100.00;51354.94;5116096;28;20440;-75
2022/11/26 02:03:49;;;;;;;20.77;12.30;;;;;;;-141.28;100.00;51364.75;5115767;28;20505;-75
2022/11/26 02:06:21;;;;;;;26.53;11.87;;;;;;;-141.28;100.00;51378.50;5115780;28;20968;-77
2022/11/26 02:08:47;;;;;;;23.90;13.17;;;;;;;-141.28;100.00;51413.84;5117875;28;20907;-74
2022/11/26 02:11:17;;;;;;;29.50;14.53;;;;;;;-141.28;100.00;51519.88;5116032;28;20498;-74
2022/11/26 02:13:47;;;;;;;28.40;14.43;;;;;;;-141.28;100.00;51684.81;5115568;28;20452;-79
2022/11/26 02:16:24;;;;;;;28.77;14.87;;;;;;;-141.28;100.00;51767.28;5115415;28;20436;-74
2022/11/26 02:19:06;;;;;;;24.57;12.73;;;;;;;-141.28;100.00;51865.47;5115377;28;21008;-75
2022/11/26 02:21:38;;;;;;;25.63;13.27;;;;;;;-141.28;100.00;51955.78;5115580;28;20440;-77
2022/11/26 02:24:24;;;;;;;25.83;13.53;;;;;;;-141.28;100.00;51908.66;5115461;28;20875;-74
2022/11/26 02:27:06;;;;;;;22.07;12.13;;;;;;;-141.28;100.00;51822.25;5115318;28;20862;-75
2022/11/26 02:30:11;;;;;;;23.43;12.30;;;;;;;-141.28;100.00;51724.06;5104054;28;20533;-75
2022/11/26 02:32:51;;;;;;;22.63;12.27;;;;;;;-141.28;100.00;51747.63;5102565;28;20539;-75
2022/11/26 02:35:22;;;;;;;19.73;11.53;;;;;;;-141.28;100.00;51773.16;5115061;28;20554;-75
2022/11/26 02:37:54;;;;;;;19.77;11.40;;;;;;;-141.28;100.00;51798.69;5115372;28;21015;-75
2022/11/26 02:40:23;;;;;;;22.90;13.13;;;;;;;-141.28;100.00;51916.50;5115470;28;20486;-75
2022/11/26 02:42:49;;;;;;;24.23;12.57;;;;;;;-141.28;100.00;51979.34;5115257;28;20461;-75
2022/11/26 02:45:20;;;;;;;20.83;12.17;;;;;;;-141.28;100.00;52087.34;5115007;28;20452;-74
2022/11/26 02:47:51;;;;;;;21.00;11.67;;;;;;;-141.28;100.00;52152.16;5115262;28;20489;-75
2022/11/26 02:50:23;;;;;;;23.87;11.17;;;;;;;-141.28;100.00;52148.25;5114949;28;20440;-74
2022/11/26 02:52:53;;;;;;;24.93;11.70;;;;;;;-141.28;100.00;52077.53;5114878;28;20449;-75
2022/11/26 02:55:25;;;;;;;18.67;10.10;;;;;;;-141.28;100.00;52138.41;5115233;28;20487;-76
2022/11/26 02:57:54;;;;;;;19.93;11.07;;;;;;;-141.28;100.00;52226.78;5114447;28;20445;-79
2022/11/26 03:00:24;;;;;;;20.87;11.23;;;;;;;-141.28;100.00;52321.06;5115070;28;20505;-77
2022/11/26 03:02:56;;;;;;;21.20;11.63;;;;;;;-141.28;100.00;52474.25;5113219;28;20939;-77
2022/11/26 03:05:24;;;;;;;20.13;10.80;;;;;;;-141.28;100.00;52541.03;5114706;28;20436;-78
2022/11/26 03:07:53;;;;;;;18.50;11.27;;;;;;;-141.28;100.00;52619.59;5114058;28;20569;-77
2022/11/26 03:10:24;;;;;;;19.30;10.63;;;;;;;-141.28;100.00;52682.44;5114549;28;20449;-76
2022/11/26 03:12:51;;;;;;;21.53;10.53;;;;;;;-141.28;100.00;52694.22;5114757;28;20445;-74
2022/11/26 03:15:18;;;;;;;20.40;11.13;;;;;;;-141.28;100.00;52745.28;5114583;28;20549;-78
2022/11/26 03:17:47;;;;;;;23.27;11.47;;;;;;;-141.28;100.00;52658.88;5114163;28;20460;-76
2022/11/26 03:20:15;;;;;;;18.60;8.93;;;;;;;-141.28;100.00;52804.22;5114313;28;20440;-77
2022/11/26 03:22:42;;;;;;;16.73;10.67;;;;;;;-141.28;100.00;52784.59;5114140;28;20473;-77
2022/11/26 03:25:09;;;;;;;14.93;8.43;;;;;;;-141.28;100.00;52739.41;5114439;28;20456;-74
2022/11/26 03:27:36;;;;;;;9.73;5.90;;;;;;;-141.28;100.00;52741.38;5114262;28;20441;-74
2022/11/26 03:30:04;;;;;;;16.03;8.77;;;;;;;-141.28;100.00;52762.97;5114340;28;20440;-74
2022/11/26 03:32:31;;;;;;;13.67;8.00;;;;;;;-141.28;100.00;52764.94;5114052;28;20531;-78
2022/11/26 03:35:00;;;;;;;13.13;7.73;;;;;;;-141.28;100.00;52709.94;5113781;28;21005;-77
2022/11/26 03:37:28;;;;;;;18.47;8.43;;;;;;;-141.28;100.00;52694.22;5113911;28;20896;-75
2022/11/26 03:39:54;;;;;;;22.03;11.50;;;;;;;-141.28;100.00;52662.81;5113920;28;20452;-74
2022/11/26 03:42:21;;;;;;;21.70;10.00;;;;;;;-141.28;100.00;52584.25;5114164;28;20947;-75
2022/11/26 03:44:48;;;;;;;17.17;8.13;;;;;;;-141.28;100.00;52578.34;5117145;28;20449;-76
2022/11/26 03:47:15;;;;;;;13.87;7.63;;;;;;;-141.28;100.00;52517.47;5120933;28;20935;-74
2022/11/26 03:49:44;;;;;;;8.63;5.87;;;;;;;-141.28;100.00;52493.88;5113817;28;20466;-75
2022/11/26 03:52:12;;;;;;;16.53;7.73;;;;;;;-141.28;100.00;52409.44;5113724;28;20441;-75
2022/11/26 03:54:39;;;;;;;16.50;8.20;;;;;;;-141.28;100.00;52344.63;5113810;28;20579;-75
2022/11/26 03:57:07;;;;;;;13.97;8.20;;;;;;;-141.28;100.00;52167.88;5114370;28;20517;-75
2022/11/26 03:59:34;;;;;;;16.17;7.73;;;;;;;-141.28;100.00;52258.22;5102925;28;21044;-74
2022/11/26 04:02:00;;;;;;;14.80;8.80;;;;;;;-141.28;100.00;52209.13;5110903;28;21016;-75
2022/11/26 04:04:27;;;;;;;20.20;10.43;;;;;;;-141.28;100.00;52189.47;5113458;28;20453;-76
2022/11/26 04:06:55;;;;;;;20.20;10.07;;;;;;;-141.28;100.00;52156.09;5113504;28;20445;-77
2022/11/26 04:09:23;;;;;;;16.30;9.60;;;;;;;-141.28;100.00;52128.59;5111366;28;20445;-76
2022/11/26 04:11:50;;;;;;;26.30;12.10;;;;;;;-141.28;100.00;52089.31;5102820;28;20513;-77
2022/11/26 04:14:17;;;;;;;27.50;12.07;;;;;;;-141.28;100.00;52026.47;5112539;28;20525;-75
2022/11/26 04:16:44;;;;;;;21.97;10.50;;;;;;;-141.28;100.00;51983.28;5115758;28;20498;-75
2022/11/26 04:19:10;;;;;;;23.73;11.43;;;;;;;-141.28;100.00;51971.50;5114151;28;20469;-78
2022/11/26 04:21:37;;;;;;;28.27;12.23;;;;;;;-141.28;100.00;51896.88;5113532;28;20448;-76
2022/11/26 04:24:05;;;;;;;22.67;10.73;;;;;;;-141.28;100.00;51841.88;5113111;28;20452;-76
2022/11/26 04:26:36;;;;;;;21.07;9.97;;;;;;;-141.28;100.00;51676.94;5113223;28;20457;-76
2022/11/26 04:29:03;;;;;;;22.80;9.23;;;;;;;-141.28;100.00;51582.69;5113173;28;20509;-75
2022/11/26 04:31:30;;;;;;;23.20;10.33;;;;;;;-141.28;100.00;51496.31;5113150;28;21047;-75
2022/11/26 04:33:57;;;;;;;23.50;10.23;;;;;;;-141.28;100.00;51398.13;5112895;28;20449;-74
2022/11/26 04:36:24;;;;;;;29.47;13.00;;;;;;;-141.28;100.00;51188.06;5113254;28;20490;-74
2022/11/26 04:38:52;;;;;;;29.07;13.30;;;;;;;-141.28;100.00;51217.50;5112592;28;20943;-78
2022/11/26 04:41:19;;;;;;;23.03;10.63;;;;;;;-141.28;100.00;51186.09;5101864;28;20445;-79
2022/11/26 04:43:47;;;;;;;25.63;12.83;;;;;;;-141.28;100.00;51127.19;5110922;28;20448;-74
2022/11/26 04:46:15;;;;;;;34.80;18.43;;;;;;;-141.28;100.00;51193.94;5112706;28;20444;-74
2022/11/26 04:48:42;;;;;;;78.73;37.80;;;;;;;-141.28;100.00;51162.53;5112779;28;20441;-75
2022/11/26 04:51:09;;;;;;;40.53;21.53;;;;;;;-141.28;100.00;51125.22;5112987;28;20518;-78
2022/11/26 04:53:36;;;;;;;82.33;41.67;;;;;;;-141.28;100.00;51138.97;5112475;28;20445;-75
2022/11/26 04:56:04;;;;;;;64.50;34.37;;;;;;;-141.28;100.00;51072.22;5113020;28;20484;-74
2022/11/26 04:58:32;;;;;;;54.57;30.30;;;;;;;-141.28;100.00;50997.63;5112392;28;20970;-76
2022/11/26 05:01:00;;;;;;;50.60;24.43;;;;;;;-141.28;100.00;50974.06;5112532;28;20521;-75
2022/11/26 05:03:29;;;;;;;42.63;21.63;;;;;;;-141.28;100.00;50946.59;5112848;28;20447;-74
2022/11/26 05:05:57;;;;;;;45.30;21.00;;;;;;;-141.28;100.00;50944.63;5112353;28;20476;-74
2022/11/26 05:08:25;;;;;;;36.60;17.13;;;;;;;-141.28;100.00;50958.38;5100202;28;20436;-74
2022/11/26 05:10:54;;;;;;;60.67;18.60;;;;;;;-141.28;100.00;50938.72;5098498;28;20453;-75
2022/11/26 05:13:21;;;;;;;19.13;9.60;;;;;;;-141.28;100.00;50915.16;5112169;28;20531;-79
2022/11/26 05:15:48;;;;;;;29.87;12.80;;;;;;;-141.28;100.00;50870.03;5112237;28;20496;-76
2022/11/26 05:18:16;;;;;;;33.67;11.57;;;;;;;-141.28;100.00;50875.91;5103508;28;20476;-77
2022/11/26 05:20:43;;;;;;;31.07;11.57;;;;;;;-141.28;100.00;50887.69;5107688;28;20963;-74
2022/11/26 05:23:10;;;;;;;24.57;11.93;;;;;;;-141.28;100.00;50905.34;5104643;28;20606;-77
2022/11/26 05:25:37;;;;;;;24.33;11.43;;;;;;;-141.28;100.00;50883.75;5105081;28;21032;-76
2022/11/26 05:28:06;;;;;;;20.17;10.33;;;;;;;-141.28;100.00;50860.19;5112135;28;20441;-76
2022/11/26 05:30:33;;;;;;;26.70;11.47;;;;;;;-141.28;100.00;50868.06;5110582;28;20495;-76
2022/11/26 05:33:00;;;;;;;25.27;10.30;;;;;;;-141.28;100.00;50840.56;5100212;28;20825;-77
2022/11/26 05:35:29;;;;;;;20.53;9.67;;;;;;;-141.28;100.00;50824.88;5111707;28;20560;-74
2022/11/26 05:37:56;;;;;;;20.83;9.10;;;;;;;-141.28;100.00;50840.56;5111985;28;20509;-74
2022/11/26 05:40:23;;;;;;;17.83;9.13;;;;;;;-141.28;100.00;50818.97;5111774;28;20449;-78
2022/11/26 05:42:50;;;;;;;19.30;8.03;;;;;;;-141.28;100.00;50832.72;5111702;28;20441;-77
2022/11/26 05:45:17;;;;;;;16.77;8.90;;;;;;;-141.28;100.00;50854.31;5099363;28;20463;-75
2022/11/26 05:47:44;;;;;;;15.33;8.67;;;;;;;-141.28;100.00;50828.78;5112028;28;20471;-75
2022/11/26 05:50:12;;;;;;;23.37;9.73;;;;;;;-141.28;100.00;50846.47;5112260;28;20460;-75
2022/11/26 05:52:40;;;;;;;19.70;8.67;;;;;;;-141.28;100.00;50817.03;5111595;28;20459;-78
2022/11/26 05:55:09;;;;;;;23.43;8.30;;;;;;;-141.28;100.00;50815.06;5112015;28;20480;-77
2022/11/26 05:57:37;;;;;;;21.83;10.47;;;;;;;-141.28;100.00;50820.94;5111076;28;20502;-76
2022/11/26 06:00:05;;;;;;;20.90;9.93;;;;;;;-141.28;100.00;50809.16;5112510;28;20861;-76
2022/11/26 06:02:33;;;;;;;36.50;12.63;;;;;;;-141.28;100.00;50809.16;5112481;28;20463;-79
2022/11/26 06:05:00;;;;;;;40.40;15.80;;;;;;;-141.28;100.00;50762.06;5112419;28;20523;-74
2022/11/26 06:07:27;;;;;;;18.13;10.33;;;;;;;-141.28;100.00;50809.16;5099919;28;20486;-73
2022/11/26 06:09:56;;;;;;;18.90;10.63;;;;;;;-141.28;100.00;50762.06;5111029;28;20866;-73
2022/11/26 06:12:23;;;;;;;24.53;11.13;;;;;;;-141.28;100.00;50769.91;5116039;28;20437;-74
2022/11/26 06:14:50;;;;;;;29.47;13.77;;;;;;;-141.28;100.00;50765.97;5113788;28;20882;-75
2022/11/26 06:17:17;;;;;;;23.13;11.57;;;;;;;-141.28;100.00;50746.34;5116747;28;20974;-74
2022/11/26 06:19:44;;;;;;;27.87;10.97;;;;;;;-141.28;100.00;50742.41;5115697;28;20551;-76
2022/11/26 06:22:11;;;;;;;33.83;13.10;;;;;;;-141.28;100.00;50758.13;5108690;28;20468;-75
2022/11/26 06:24:39;;;;;;;32.07;12.33;;;;;;;-141.28;100.00;50734.56;5112920;28;20444;-74
2022/11/26 06:27:09;;;;;;;41.90;13.93;;;;;;;-141.28;100.00;50738.50;5112078;28;20441;-74
2022/11/26 06:29:36;;;;;;;32.33;14.67;;;;;;;-141.28;100.00;50587.34;5113701;28;20467;-74
2022/11/26 06:32:03;;;;;;;35.03;15.03;;;;;;;-141.28;100.00;50709.06;5112877;28;20449;-75
2022/11/26 06:34:30;;;;;;;41.40;16.00;;;;;;;-141.28;100.00;50705.13;5112356;28;20993;-77
2022/11/26 06:36:57;;;;;;;41.67;16.77;;;;;;;-141.28;100.00;50748.31;5114590;28;20488;-76
2022/11/26 06:39:25;;;;;;;33.67;15.00;;;;;;;-141.28;100.00;50809.16;5115538;28;21019;-76
2022/11/26 06:41:52;;;;;;;39.03;15.63;;;;;;;-141.28;100.00;50817.03;5115719;28;20440;-77
2022/11/26 06:44:20;;;;;;;26.83;13.10;;;;;;;-141.28;100.00;50836.66;5115294;28;20990;-74
2022/11/26 06:46:47;;;;;;;31.47;14.33;;;;;;;-141.28;100.00;50777.75;5114757;28;20445;-75
2022/11/26 06:49:14;;;;;;;30.90;14.67;;;;;;;-141.28;100.00;50775.78;5114542;28;20967;-75
2022/11/26 06:51:41;;;;;;;36.20;15.10;;;;;;;-141.28;100.00;50760.09;5114896;28;20468;-76
2022/11/26 06:54:08;;;;;;;33.03;13.33;;;;;;;-141.28;100.00;50711.00;5114651;28;20448;-76
2022/11/26 06:56:36;;;;;;;33.80;14.87;;;;;;;-141.28;100.00;50738.50;5114656;28;20540;-75
2022/11/26 06:59:03;;;;;;;40.63;15.70;;;;;;;-141.28;100.00;50671.75;5101341;28;20974;-76
2022/11/26 07:01:31;;;;;;;22.57;11.70;;;;;;;-141.28;100.00;50732.59;5114384;28;20955;-75
2022/11/26 07:03:59;;;;;;;17.83;10.40;;;;;;;-141.28;100.00;50665.88;5114840;28;21032;-75
2022/11/26 07:06:27;;;;;;;21.30;12.00;;;;;;;-141.28;100.00;50644.28;5120764;28;20503;-75
2022/11/26 07:08:56;;;;;;;20.40;11.00;;;;;;;-141.28;100.00;50550.06;5119703;28;20452;-74
2022/11/26 07:11:24;;;;;;;20.80;11.40;;;;;;;-141.28;100.00;50530.41;5114058;28;21012;-75
2022/11/26 07:13:52;;;;;;;18.57;10.53;;;;;;;-141.28;100.00;50483.31;5114378;28;20452;-77
2022/11/26 07:16:21;;;;;;;15.70;10.00;;;;;;;-141.28;100.00;50506.88;5107570;28;20482;-77
2022/11/26 07:18:50;;;;;;;18.40;10.33;;;;;;;-141.28;100.00;50396.94;5108153;28;20517;-76
2022/11/26 07:21:19;;;;;;;23.57;11.60;;;;;;;-141.28;100.00;50465.66;5114570;28;20445;-75
2022/11/26 07:23:47;;;;;;;16.37;10.57;;;;;;;-141.28;100.00;50467.59;5100701;28;21023;-74
2022/11/26 07:26:15;;;;;;;15.97;10.50;;;;;;;-141.28;100.00;50393.03;5116132;28;20457;-75
2022/11/26 07:28:42;;;;;;;20.50;11.70;;;;;;;-141.28;100.00;50416.56;5115903;28;20445;-76
2022/11/26 07:31:13;;;;;;;17.63;10.50;;;;;;;-141.28;100.00;50420.50;5117356;28;20977;-75
2022/11/26 07:33:40;;;;;;;18.13;10.80;;;;;;;-141.28;100.00;50416.56;5117134;28;20493;-76
2022/11/26 07:36:13;;;;;;;18.73;10.70;;;;;;;-141.28;100.00;50455.84;5114839;28;20477;-76
2022/11/26 07:38:40;;;;;;;18.63;11.03;;;;;;;-141.28;100.00;50436.19;5115650;28;20495;-78
2022/11/26 07:41:09;;;;;;;17.43;11.30;;;;;;;-141.28;100.00;50420.50;5114943;28;20968;-75
2022/11/26 07:43:37;;;;;;;19.97;10.77;;;;;;;-141.28;100.00;50416.56;5114471;28;20445;-78
2022/11/26 07:46:06;;;;;;;19.77;11.13;;;;;;;-141.28;100.00;50420.50;5100150;28;20461;-75
2022/11/26 07:48:35;;;;;;;17.10;10.67;;;;;;;-141.28;100.00;50461.72;5113175;28;20446;-74
2022/11/26 07:51:02;;;;;;;17.77;11.67;;;;;;;-141.28;100.00;50444.06;5114128;28;20444;-75
2022/11/26 07:53:33;;;;;;;16.10;11.40;;;;;;;-141.28;100.00;50414.63;5114228;28;20492;-75
2022/11/26 07:56:00;;;;;;;27.20;12.93;;;;;;;-141.28;100.00;50438.16;5114083;28;20557;-75
2022/11/26 07:58:27;;;;;;;18.90;11.50;;;;;;;-141.28;100.00;50424.44;5113436;28;20441;-75
2022/11/26 08:00:54;;;;;;;16.20;9.03;;;;;;;-141.28;100.00;50440.13;5113773;28;20918;-75
2022/11/26 08:03:21;;;;;;;16.53;10.20;;;;;;;-141.28;100.00;50440.13;5113837;28;20449;-78
2022/11/26 08:05:48;;;;;;;16.90;9.67;;;;;;;-141.28;100.00;50408.72;5114156;28;20505;-75
2022/11/26 08:08:15;;;;;;;18.17;10.20;;;;;;;-141.28;100.00;50391.06;5113075;28;20467;-76
2022/11/26 08:10:44;;;;;;;17.50;10.60;;;;;;;-141.28;100.00;50444.06;5113709;28;20445;-75
2022/11/26 08:13:11;;;;;;;16.37;10.43;;;;;;;-141.28;100.00;50495.09;5113597;28;20952;-74
2022/11/26 08:15:39;;;;;;;17.70;10.90;;;;;;;-141.28;100.00;50518.66;5113338;28;20529;-76
2022/11/26 08:18:07;;;;;;;17.83;11.63;;;;;;;-141.28;100.00;50534.34;5113564;28;20510;-74
2022/11/26 08:20:35;;;;;;;19.67;11.20;;;;;;;-141.28;100.00;50567.72;5113225;28;20527;-75
2022/11/26 08:23:02;;;;;;;19.70;11.30;;;;;;;-141.28;100.00;50620.72;5112942;28;20472;-77
2022/11/26 08:25:30;;;;;;;17.73;11.77;;;;;;;-141.28;100.00;50665.88;5112955;28;20444;-75
2022/11/26 08:27:59;;;;;;;21.23;11.27;;;;;;;-141.28;100.00;50718.88;5113741;28;20502;-74
2022/11/26 08:30:26;;;;;;;13.33;9.90;;;;;;;-141.28;100.00;50726.72;5112513;28;20445;-75
2022/11/26 08:32:53;;;;;;;18.50;12.50;;;;;;;-141.28;100.00;50758.13;5113177;28;20457;-76
2022/11/26 08:35:20;;;;;;;18.87;12.33;;;;;;;-141.28;100.00;50760.09;5113482;28;21002;-75
2022/11/26 08:37:47;;;;;;;19.80;11.87;;;;;;;-141.28;100.00;50734.56;5112713;28;20488;-79
2022/11/26 08:40:14;;;;;;;18.53;12.33;;;;;;;-141.28;100.00;50691.38;5101504;28;20845;-77
2022/11/26 08:42:41;;;;;;;23.40;12.60;;;;;;;-141.28;100.00;50689.41;5110870;28;20441;-76
2022/11/26 08:45:12;;;;;;;19.17;11.97;;;;;;;-141.28;100.00;50644.28;5113064;28;20882;-75
2022/11/26 08:47:40;;;;;;;20.40;11.90;;;;;;;-141.28;100.00;50606.97;5112816;28;20436;-77
2022/11/26 08:50:08;;;;;;;18.03;11.57;;;;;;;-141.28;100.00;50687.47;5112922;28;20440;-75
2022/11/26 08:52:35;;;;;;;18.93;12.20;;;;;;;-141.28;100.00;50730.66;5112568;28;20950;-74
2022/11/26 08:55:02;;;;;;;26.00;13.40;;;;;;;-141.28;100.00;50773.81;5112377;28;20449;-78
2022/11/26 08:57:29;;;;;;;20.30;11.47;;;;;;;-141.28;100.00;50777.75;5112246;28;20487;-77
2022/11/26 08:59:57;;;;;;;20.43;11.87;;;;;;;-141.28;100.00;50854.31;5111571;28;20461;-75
2022/11/26 09:02:27;;;;;;;17.93;11.23;;;;;;;-141.28;100.00;50907.31;5100221;28;20556;-77
2022/11/26 09:04:54;;;;;;;20.57;12.37;;;;;;;-141.28;100.00;50915.16;5112451;28;20456;-78
2022/11/26 09:07:21;;;;;;;21.47;12.50;;;;;;;-141.28;100.00;50901.44;5112665;28;20444;-76
2022/11/26 09:09:49;;;;;;;17.57;12.20;;;;;;;-141.28;100.00;50911.25;5112146;28;20911;-76
2022/11/26 09:12:16;;;;;;;19.30;12.47;;;;;;;-141.28;100.00;50966.22;5111843;28;20445;-75
2022/11/26 09:14:44;;;;;;;18.67;11.53;;;;;;;-141.28;100.00;50899.47;5112030;28;20807;-75
2022/11/26 09:17:12;;;;;;;20.97;12.47;;;;;;;-141.28;100.00;50930.88;5112061;28;20852;-76
2022/11/26 09:19:41;;;;;;;18.30;11.17;;;;;;;-141.28;100.00;50883.75;5099389;28;20521;-75
2022/11/26 09:22:08;;;;;;;24.87;12.57;;;;;;;-141.28;100.00;50877.88;5111868;28;20982;-76
2022/11/26 09:24:35;;;;;;;22.57;12.13;;;;;;;-141.28;100.00;50942.66;5112056;28;20444;-74
2022/11/26 09:27:02;;;;;;;17.33;11.07;;;;;;;-141.28;100.00;50976.03;5111955;28;20449;-78
2022/11/26 09:29:29;;;;;;;21.50;12.97;;;;;;;-141.28;100.00;50968.19;5112046;28;20449;-79
2022/11/26 09:31:58;;;;;;;20.67;12.80;;;;;;;-141.28;100.00;51011.38;5098134;28;20480;-76
2022/11/26 09:34:25;;;;;;;19.80;12.93;;;;;;;-141.28;100.00;51021.19;5112385;28;20942;-74
2022/11/26 09:36:54;;;;;;;21.37;13.43;;;;;;;-141.28;100.00;50997.63;5111849;28;20492;-74
2022/11/26 09:39:21;;;;;;;18.60;12.73;;;;;;;-141.28;100.00;51005.47;5111899;28;20456;-79
2022/11/26 09:41:54;;;;;;;23.47;13.73;;;;;;;-141.28;100.00;51091.84;5111682;28;20441;-75
2022/11/26 09:44:36;;;;;;;20.20;13.17;;;;;;;-141.28;100.00;51052.59;5111536;28;20891;-74
2022/11/26 09:47:11;;;;;;;21.37;13.83;;;;;;;-141.28;100.00;51125.22;5112242;28;20539;-74
2022/11/26 09:49:44;;;;;;;25.47;13.97;;;;;;;-141.28;100.00;51013.31;5112294;28;20449;-75
2022/11/26 09:52:17;;;;;;;22.13;12.80;;;;;;;-141.28;100.00;50948.53;5111643;28;20525;-75
2022/11/26 09:54:45;;;;;;;20.63;13.60;;;;;;;-141.28;100.00;50958.38;5111645;28;21008;-75
2022/11/26 09:57:21;;;;;;;19.60;12.93;;;;;;;-141.28;100.00;50972.09;5111586;28;21026;-76
2022/11/26 09:59:51;;;;;;;18.87;13.40;;;;;;;-141.28;100.00;50946.59;5111600;28;20477;-78
2022/11/26 10:02:19;;;;;;;23.83;13.00;;;;;;;-141.28;100.00;50942.66;5111381;28;20494;-75
2022/11/26 10:04:46;;;;;;;20.43;12.70;;;;;;;-141.28;100.00;50942.66;5099839;28;20506;-77
2022/11/26 10:07:43;;;;;;;19.93;12.17;;;;;;;-141.28;100.00;51001.56;5109854;28;20456;-77
2022/11/26 10:10:17;;;;;;;20.20;12.70;;;;;;;-141.28;100.00;51031.00;5111734;28;20441;-76
2022/11/26 10:12:57;;;;;;;24.37;15.50;;;;;;;-141.28;100.00;51074.19;5114494;28;20440;-78
2022/11/26 10:15:31;;;;;;;28.07;15.47;;;;;;;-141.28;100.00;51219.47;5115970;28;20456;-78
2022/11/26 10:18:07;;;;;;;21.97;13.43;;;;;;;-141.28;100.00;51508.09;5115762;28;20511;-75
2022/11/26 10:20:54;;;;;;;22.80;14.43;;;;;;;-141.28;100.00;51743.72;5115544;28;20807;-77
2022/11/26 10:23:36;;;;;;;22.00;14.93;;;;;;;-141.28;100.00;51855.63;5115384;28;21090;-79
2022/11/26 10:26:07;;;;;;;25.77;13.83;;;;;;;-141.28;100.00;51794.75;5118792;28;20449;-74
2022/11/26 10:28:39;;;;;;;17.03;12.73;;;;;;;-141.28;100.00;51645.53;5124363;28;20517;-75
2022/11/26 10:31:12;;;;;;;24.90;13.73;;;;;;;-141.28;100.00;51535.56;5116442;28;20199;-77
2022/11/26 10:33:50;;;;;;;20.67;13.97;;;;;;;-141.28;100.00;51280.34;5109483;28;20204;-75
2022/11/26 10:36:23;;;;;;;19.13;14.00;;;;;;;-141.28;100.00;50832.72;5115762;28;20202;-77
2022/11/26 10:38:57;;;;;;;22.20;14.33;;;;;;;-141.28;100.00;50302.72;5115349;28;20202;-80
2022/11/26 10:41:26;;;;;;;21.50;13.80;;;;;;;-141.28;100.00;50667.81;5116685;28;20195;-81
2022/11/26 10:43:54;;;;;;;22.97;14.67;;;;;;;-141.28;100.00;50467.59;5125474;28;20741;-73
2022/11/26 10:46:32;;;;;;;25.47;15.67;;;;;;;-141.28;100.00;50406.75;5125723;28;20203;-72
2022/11/26 10:49:16;;;;;;;20.93;15.60;;;;;;;-141.28;100.00;50236.00;5114308;28;20234;-72
2022/11/26 10:51:47;;;;;;;21.27;14.60;;;;;;;-141.28;100.00;49961.22;5124948;28;20198;-75
2022/11/26 10:54:25;;;;;;;22.20;15.57;;;;;;;-141.28;100.00;49955.34;5126073;28;20315;-74
2022/11/26 10:56:52;;;;;;;23.53;15.60;;;;;;;-141.28;100.00;49929.81;5119188;28;20231;-75
2022/11/26 10:59:25;;;;;;;21.40;15.33;;;;;;;-141.28;100.00;49847.41;5114738;28;20655;-77
2022/11/26 11:01:55;;;;;;;23.60;15.10;;;;;;;-141.28;100.00;49906.28;5114854;28;20191;-78
2022/11/26 11:04:30;;;;;;;21.67;15.23;;;;;;;-141.28;100.00;49882.72;5114592;28;20646;-78